Terminal Aerodrome Forecast
Issued by NWS Wakefield, VA

Home | Current Version | Previous Version | Text Only | Print | Product List | Glossary On
Versions: 1 2 3 4 5 6 7 8 9 10 11 12 13 14 15 16 17 18 19
000
FTUS41 KAKQ 050007 AAA
TAFORF
TAF AMD
KORF 050007Z 0500/0524 22010KT P6SM VCSH SCT030 BKN050
     FM050050 32020G30KT 5SM SHRA VCTS BKN025CB OVC080
     FM050115 VRB05KT P6SM -RA BKN025 OVC080
     FM050230 VRB03KT P6SM SCT050 OVC100
     FM051400 07006KT P6SM SCT050 BKN120=

USA.gov is the U.S. government's official web portal to all federal, state and local government web resources and services.